createdAt,value
2023-04-18T00:01:49.812Z,99685.14
2023-04-18T00:04:51.951Z,99682.43
2023-04-18T00:07:53.734Z,99684.39
2023-04-18T00:10:55.412Z,99684.64
2023-04-18T00:13:57.214Z,99683.14
2023-04-18T00:16:58.954Z,99684.77
2023-04-18T00:20:01.040Z,99684.48
2023-04-18T00:23:02.697Z,99685.56
2023-04-18T00:26:04.770Z,99686.11
2023-04-18T00:29:06.425Z,99688.40
2023-04-18T00:32:08.485Z,99691.36
2023-04-18T00:35:10.179Z,99694.13
2023-04-18T00:38:11.939Z,99692.64
2023-04-18T00:41:13.654Z,99692.84
2023-04-18T00:44:15.471Z,99689.92
2023-04-18T00:47:17.304Z,99692.35
2023-04-18T00:50:19.648Z,99694.43
2023-04-18T00:53:21.790Z,99691.85
2023-04-18T00:56:23.494Z,99690.31
2023-04-18T00:59:25.199Z,99693.64
2023-04-18T01:02:28.009Z,99696.38
2023-04-18T01:05:30.036Z,99695.58
2023-04-18T01:08:32.000Z,99700.39
2023-04-18T01:11:33.782Z,99696.23
2023-04-18T01:14:35.926Z,99702.27
2023-04-18T01:17:37.599Z,99703.11
2023-04-18T01:20:40.889Z,99705.54
2023-04-18T01:23:42.891Z,99703.39
2023-04-18T01:26:46.175Z,99706.93
2023-04-18T01:29:47.843Z,99706.52
2023-04-18T01:32:49.612Z,99703.88
2023-04-18T01:35:51.283Z,99704.30
2023-04-18T01:38:53.118Z,99706.13
2023-04-18T01:41:54.865Z,99706.40
2023-04-18T01:44:56.675Z,99707.77
2023-04-18T01:47:58.367Z,99707.20
2023-04-18T01:51:00.149Z,99712.83
2023-04-18T01:54:02.087Z,99710.71
2023-04-18T01:57:03.829Z,99712.73
2023-04-18T02:00:06.597Z,99716.31
2023-04-18T02:03:08.329Z,99715.79
2023-04-18T02:06:10.184Z,99717.94
2023-04-18T02:09:11.846Z,99716.19
2023-04-18T02:12:13.453Z,99721.02
2023-04-18T02:15:15.077Z,99721.85
2023-04-18T02:18:16.897Z,99721.15
2023-04-18T02:21:18.549Z,99721.10
2023-04-18T02:24:20.183Z,99721.26
2023-04-18T02:27:21.817Z,99723.17
2023-04-18T02:30:25.067Z,99722.14
2023-04-18T02:33:26.693Z,99716.45
2023-04-18T02:36:28.362Z,99717.30
2023-04-18T02:39:30.032Z,99717.32
2023-04-18T02:42:31.625Z,99717.71
2023-04-18T02:45:33.408Z,99719.13
2023-04-18T02:48:35.299Z,99720.38
2023-04-18T02:51:36.960Z,99720.77
2023-04-18T02:54:38.580Z,99722.70
2023-04-18T02:57:40.271Z,99727.57
2023-04-18T03:00:41.880Z,99727.83
2023-04-18T03:03:43.718Z,99731.15
2023-04-18T03:06:45.695Z,99732.61
2023-04-18T03:09:47.354Z,99732.77
2023-04-18T03:12:48.985Z,99731.63
2023-04-18T03:15:51.171Z,99730.98
2023-04-18T03:18:52.858Z,99730.87
2023-04-18T03:21:54.609Z,99733.87
2023-04-18T03:24:56.256Z,99740.98
2023-04-18T03:27:57.954Z,99737.73
2023-04-18T03:30:59.686Z,99740.04
2023-04-18T03:34:01.396Z,99741.15
2023-04-18T03:37:03.201Z,99745.36
2023-04-18T03:40:05.421Z,99746.69
2023-04-18T03:43:07.677Z,99749.91
2023-04-18T03:46:09.358Z,99751.05
2023-04-18T03:49:11.103Z,99750.98
2023-04-18T03:52:12.723Z,99753.35
2023-04-18T03:55:14.899Z,99752.61
2023-04-18T03:58:16.527Z,99753.44
2023-04-18T04:01:18.191Z,99756.84
2023-04-18T04:04:19.972Z,99759.87
2023-04-18T04:07:21.626Z,99763.64
2023-04-18T04:10:23.295Z,99777.90
2023-04-18T04:13:25.122Z,99778.81
2023-04-18T04:16:28.182Z,99781.66
2023-04-18T04:19:29.986Z,99786.14
2023-04-18T04:22:31.840Z,99790.80
2023-04-18T04:25:33.475Z,99793.61
2023-04-18T04:28:35.270Z,99797.88
2023-04-18T04:31:36.891Z,99805.33
2023-04-18T04:34:38.970Z,99815.83
2023-04-18T04:37:40.741Z,99820.66
2023-04-18T04:40:42.914Z,99821.33
2023-04-18T04:43:47.672Z,99823.95
2023-04-18T04:46:49.506Z,99827.77
2023-04-18T04:49:51.163Z,99827.88
2023-04-18T04:52:52.992Z,99831.39
2023-04-18T04:55:54.706Z,99834.77
2023-04-18T04:58:56.399Z,99836.86
2023-04-18T05:01:58.042Z,99833.35
2023-04-18T05:04:59.873Z,99831.02
2023-04-18T05:08:02.109Z,99822.92
2023-04-18T05:11:06.751Z,99829.43
2023-04-18T05:14:08.731Z,99831.80
2023-04-18T05:17:10.480Z,99834.47
2023-04-18T05:20:13.039Z,99838.77
2023-04-18T05:23:14.732Z,99841.52
2023-04-18T05:26:16.474Z,99843.68
2023-04-18T05:29:18.255Z,99845.42
2023-04-18T05:32:20.289Z,99851.58
2023-04-18T05:35:22.085Z,99856.12
2023-04-18T05:38:23.882Z,99854.23
2023-04-18T05:41:25.823Z,99854.58
2023-04-18T05:44:27.516Z,99856.80
2023-04-18T05:47:29.324Z,99857.91
2023-04-18T05:50:31.039Z,99869.27
2023-04-18T05:53:32.745Z,99865.14
2023-04-18T05:56:34.461Z,99862.81
2023-04-18T05:59:36.408Z,99866.27
2023-04-18T06:02:38.161Z,99866.73
2023-04-18T06:05:40.111Z,99859.82
2023-04-18T06:08:41.875Z,99865.09
2023-04-18T11:16:28.557Z,99883.06
2023-04-18T11:19:32.278Z,99885.71
2023-04-18T11:22:46.430Z,99886.65
2023-04-18T11:25:49.692Z,99886.46
2023-04-18T11:28:52.275Z,99883.54
2023-04-18T11:31:57.533Z,99883.04
2023-04-18T11:35:00.564Z,99881.05
2023-04-18T11:38:02.241Z,99880.20
2023-04-18T11:41:03.867Z,99878.00
2023-04-18T11:44:06.192Z,99873.11
2023-04-18T11:47:22.899Z,99868.27
2023-04-18T11:50:25.649Z,99865.80
2023-04-18T11:53:38.468Z,99856.02
2023-04-18T11:56:48.345Z,99857.05
2023-04-18T11:59:50.683Z,99861.05
2023-04-18T12:02:52.525Z,99860.36
2023-04-18T12:06:00.797Z,99861.83
2023-04-18T12:09:02.704Z,99859.04
2023-04-18T12:12:04.895Z,99857.34
2023-04-18T12:15:14.976Z,99854.99
2023-04-18T12:18:18.611Z,99852.47
2023-04-18T12:21:20.334Z,99852.70
2023-04-18T12:24:22.464Z,99857.11
2023-04-18T12:27:24.414Z,99859.66
2023-04-18T12:30:29.376Z,99856.30
2023-04-18T12:33:31.264Z,99853.55
2023-04-18T12:36:33.139Z,99855.61
2023-04-18T12:39:34.764Z,99852.65
2023-04-18T12:42:36.705Z,99852.91
2023-04-18T12:45:38.462Z,99856.67
2023-04-18T12:48:40.654Z,99850.17
2023-04-18T12:51:42.262Z,99846.70
2023-04-18T12:54:43.927Z,99846.00
2023-04-18T12:57:45.669Z,99839.42
2023-04-18T13:00:47.316Z,99837.23
2023-04-18T13:03:59.836Z,99837.98
2023-04-18T13:07:10.488Z,99841.41
2023-04-18T13:10:14.545Z,99838.17
2023-04-18T13:13:16.302Z,99837.25
2023-04-18T13:16:18.017Z,99837.41
2023-04-18T13:19:19.672Z,99833.47
2023-04-18T13:22:21.661Z,99832.46
2023-04-18T13:25:23.512Z,99830.46
2023-04-18T13:28:25.257Z,99829.02
2023-04-18T13:31:27.279Z,99827.30
2023-04-18T13:34:29.266Z,99826.44
2023-04-18T13:37:30.926Z,99825.29
2023-04-18T13:40:32.643Z,99827.15
2023-04-18T13:43:34.265Z,99826.67
2023-04-18T13:46:36.033Z,99823.69
2023-04-18T13:49:37.773Z,99823.77
2023-04-18T13:52:39.502Z,99821.16
2023-04-18T13:55:41.095Z,99821.92
2023-04-18T13:58:42.742Z,99819.48
2023-04-18T14:01:44.516Z,99821.83
2023-04-18T14:04:46.479Z,99816.73
2023-04-18T14:07:48.589Z,99812.56
2023-04-18T14:10:50.207Z,99816.36
2023-04-18T14:13:51.972Z,99811.88
2023-04-18T14:16:53.633Z,99810.41
2023-04-18T14:19:55.294Z,99806.26
2023-04-18T14:22:56.949Z,99806.29
2023-04-18T14:25:58.737Z,99807.26
2023-04-18T14:29:00.400Z,99807.48
2023-04-18T14:32:02.080Z,99806.10
2023-04-18T14:35:05.386Z,99808.30
2023-04-18T14:38:07.188Z,99806.22
2023-04-18T14:41:09.009Z,99802.17
2023-04-18T14:44:10.888Z,99802.61
2023-04-18T14:47:12.504Z,99801.61
2023-04-18T14:50:14.536Z,99801.27
2023-04-18T14:53:16.160Z,99798.80
2023-04-18T14:56:18.043Z,99802.80
2023-04-18T14:59:19.883Z,99805.12
2023-04-18T15:02:22.188Z,99804.59
2023-04-18T15:05:24.184Z,99806.05
2023-04-18T15:08:25.894Z,99799.52
2023-04-18T15:11:27.665Z,99799.36
2023-04-18T15:14:30.584Z,99798.84
2023-04-18T15:17:33.475Z,99800.62
2023-04-18T15:20:35.290Z,99799.52
2023-04-18T15:23:37.267Z,99803.60
2023-04-18T15:26:38.836Z,99806.29
2023-04-18T15:29:40.485Z,99802.03
2023-04-18T15:32:42.325Z,99804.22
2023-04-18T15:35:44.068Z,99808.33
2023-04-18T15:38:45.705Z,99803.31
2023-04-18T15:41:47.365Z,99804.91
2023-04-18T15:44:49.418Z,99806.38
2023-04-18T15:47:51.254Z,99810.42
2023-04-18T15:50:52.976Z,99810.66
2023-04-18T15:53:54.696Z,99810.12
2023-04-18T15:56:56.676Z,99810.15
2023-04-18T15:59:58.291Z,99810.74
2023-04-18T16:02:59.958Z,99811.89
2023-04-18T16:06:01.873Z,99810.67
2023-04-18T16:09:03.544Z,99808.86
2023-04-18T16:12:05.388Z,99808.27
2023-04-18T16:15:09.085Z,99809.06
2023-04-18T16:18:10.880Z,99805.12
2023-04-18T16:21:14.172Z,99806.14
2023-04-18T16:24:16.179Z,99805.65
2023-04-18T16:27:17.974Z,99803.22
2023-04-18T16:30:19.959Z,99806.10
2023-04-18T16:33:21.622Z,99804.67
2023-04-18T16:36:23.355Z,99805.50
2023-04-18T16:39:25.133Z,99803.77
2023-04-18T16:42:26.808Z,99809.06
2023-04-18T16:45:28.463Z,99804.21
2023-04-18T16:48:30.343Z,99803.81
2023-04-18T16:51:32.265Z,99805.44
2023-04-18T16:54:33.941Z,99804.32
2023-04-18T16:57:35.578Z,99799.73
2023-04-18T17:00:38.524Z,99799.55
2023-04-18T17:03:40.699Z,99795.98
2023-04-18T17:06:42.523Z,99795.48
2023-04-18T17:09:44.146Z,99797.69
2023-04-18T17:12:46.884Z,99799.40
2023-04-18T17:15:48.646Z,99803.69
2023-04-18T17:18:50.284Z,99806.92
2023-04-18T17:21:52.021Z,99807.38
2023-04-18T17:24:53.696Z,99806.77
2023-04-18T17:27:55.324Z,99809.95
2023-04-18T17:30:56.985Z,99810.84
2023-04-18T17:33:59.186Z,99807.38
2023-04-18T17:37:01.008Z,99812.02
2023-04-18T17:40:03.378Z,99811.48
2023-04-18T17:43:05.192Z,99811.46
2023-04-18T17:46:06.921Z,99813.33
2023-04-18T17:49:08.657Z,99809.00
2023-04-18T17:52:10.300Z,99810.58
2023-04-18T17:55:12.233Z,99811.64
2023-04-18T17:58:13.981Z,99812.88
2023-04-18T18:01:17.226Z,99812.73
2023-04-18T18:04:19.602Z,99817.80
2023-04-18T18:07:21.655Z,99818.73
2023-04-18T18:10:23.520Z,99822.80
2023-04-18T18:13:25.360Z,99819.94
2023-04-18T18:16:27.268Z,99821.09
2023-04-18T18:19:29.099Z,99817.73
2023-04-18T18:22:30.858Z,99815.89
2023-04-18T18:25:32.512Z,99815.50
2023-04-18T18:28:34.177Z,99814.88
2023-04-18T18:31:36.151Z,99813.25
2023-04-18T18:34:37.772Z,99817.45
2023-04-18T18:37:39.553Z,99810.10
2023-04-18T18:40:41.431Z,99811.65
2023-04-18T18:43:43.123Z,99810.86
2023-04-18T18:46:45.198Z,99809.20
2023-04-18T18:49:46.912Z,99809.77
2023-04-18T18:52:48.527Z,99808.45
2023-04-18T18:55:50.306Z,99813.46
2023-04-18T18:58:54.165Z,99809.13
2023-04-18T19:01:55.984Z,99809.80
2023-04-18T19:04:57.904Z,99810.40
2023-04-18T19:07:59.972Z,99807.67
2023-04-18T19:11:01.723Z,99806.92
2023-04-18T19:14:03.490Z,99806.59
2023-04-18T19:17:05.155Z,99806.39
2023-04-18T19:20:08.252Z,99808.66
2023-04-18T19:23:10.052Z,99806.10
2023-04-18T19:26:11.836Z,99801.52
2023-04-18T19:29:18.216Z,99800.89
2023-04-18T19:32:19.901Z,99800.36
2023-04-18T19:35:21.886Z,99798.02
2023-04-18T19:38:23.879Z,99794.92
2023-04-18T19:41:25.579Z,99796.98
2023-04-18T19:44:28.480Z,99792.81
2023-04-18T19:47:30.160Z,99790.95
2023-04-18T19:50:31.925Z,99791.39
2023-04-18T19:53:34.476Z,99789.77
2023-04-18T19:56:38.502Z,99788.48
2023-04-18T19:59:40.255Z,99788.69
2023-04-18T20:02:42.347Z,99778.40
2023-04-18T20:05:44.479Z,99779.45
2023-04-18T20:08:46.306Z,99775.80
2023-04-18T20:11:47.991Z,99772.48
2023-04-18T20:14:50.320Z,99772.41
2023-04-18T20:17:52.299Z,99768.36
2023-04-18T20:20:54.018Z,99764.79
2023-04-18T20:23:55.617Z,99767.13
2023-04-18T20:26:59.419Z,99764.29
2023-04-18T20:30:01.072Z,99763.06
2023-04-18T20:33:03.138Z,99763.13
2023-04-18T20:36:05.471Z,99761.70
2023-04-18T20:39:08.822Z,99754.02
2023-04-18T20:42:10.488Z,99751.98
2023-04-18T20:45:12.470Z,99745.71
2023-04-18T20:48:14.108Z,99745.11
2023-04-18T20:51:16.432Z,99743.56
2023-04-18T20:54:18.164Z,99740.33
2023-04-18T20:57:19.968Z,99740.79
2023-04-18T21:00:21.726Z,99734.20
2023-04-18T21:03:23.632Z,99729.54
2023-04-18T21:06:25.441Z,99728.26
2023-04-18T21:09:27.296Z,99727.32
2023-04-18T21:12:28.972Z,99723.35
2023-04-18T21:15:30.797Z,99721.78
2023-04-18T21:18:32.713Z,99718.84
2023-04-18T21:21:34.947Z,99715.40
2023-04-18T21:24:36.572Z,99712.88
2023-04-18T21:27:38.229Z,99707.40
2023-04-18T21:30:39.849Z,99704.70
2023-04-18T21:33:41.606Z,99701.69
2023-04-18T21:36:43.289Z,99701.40
2023-04-18T21:39:45.234Z,99702.45
2023-04-18T21:42:48.650Z,99700.61
2023-04-18T21:45:51.571Z,99699.64
2023-04-18T21:48:53.273Z,99692.08
2023-04-18T21:51:55.069Z,99691.42
2023-04-18T21:54:56.655Z,99689.23
2023-04-18T21:57:58.340Z,99688.50
2023-04-18T22:01:00.356Z,99687.05
2023-04-18T22:04:02.200Z,99684.01
2023-04-18T22:07:04.060Z,99681.91
2023-04-18T22:10:06.220Z,99681.33
2023-04-18T22:13:08.484Z,99678.66
2023-04-18T22:16:10.693Z,99674.30
2023-04-18T22:19:12.342Z,99673.72
2023-04-18T22:22:14.168Z,99675.23
2023-04-18T22:25:15.797Z,99673.61
2023-04-18T22:28:17.751Z,99671.53
2023-04-18T22:31:19.432Z,99671.34
2023-04-18T22:34:21.205Z,99670.35
2023-04-18T22:37:22.996Z,99669.84
2023-04-18T22:40:24.792Z,99664.65
2023-04-18T22:43:26.429Z,99658.94
2023-04-18T22:46:28.225Z,99657.36
2023-04-18T22:49:29.919Z,99656.08
2023-04-18T22:52:31.585Z,99652.61
2023-04-18T22:55:33.243Z,99648.92
2023-04-18T22:58:34.851Z,99647.31
2023-04-18T23:01:36.548Z,99645.52
2023-04-18T23:04:38.536Z,99642.52
2023-04-18T23:07:40.480Z,99639.15
2023-04-18T23:10:42.064Z,99635.60
2023-04-18T23:13:43.692Z,99628.77
2023-04-18T23:16:45.350Z,99629.33
2023-04-18T23:19:47.062Z,99622.69
2023-04-18T23:22:48.764Z,99623.27
2023-04-18T23:25:50.428Z,99616.30
2023-04-18T23:28:52.850Z,99613.48
2023-04-18T23:31:54.592Z,99607.34
2023-04-18T23:34:56.529Z,99603.48
2023-04-18T23:37:58.187Z,99603.12
2023-04-18T23:40:59.938Z,99597.05
2023-04-18T23:44:01.800Z,99598.21
2023-04-18T23:47:03.580Z,99594.27
2023-04-18T23:50:05.884Z,99587.99
2023-04-18T23:53:07.552Z,99584.27
2023-04-18T23:56:09.156Z,99582.13
2023-04-18T23:59:10.802Z,99575.75
